Time;durP1;ratioP1;P1;durP2;ratioP2;P2;SDS_P1;SDS_P2;PMS_P1;PMS_P2;Temp;Humidity;BMP_temperature;BMP_pressure;BME280_temperature;BME280_humidity;BME280_pressure;Samples;Min_cycle;Max_cycle;Signal;HPM_P1;HPM_P2
2024/04/21 00:01:45;;;;;;;3.42;1.98;;;6.60;95.20;;;;;;5435586;26;20003;-68
2024/04/21 00:04:13;;;;;;;2.45;1.83;;;6.50;95.20;;;;;;5430702;26;20007;-68
2024/04/21 00:06:39;;;;;;;3.88;1.90;;;6.50;95.40;;;;;;5436133;26;20006;-68
2024/04/21 00:09:05;;;;;;;6.15;2.38;;;6.50;95.30;;;;;;5433200;26;20908;-68
2024/04/21 00:11:31;;;;;;;3.60;2.03;;;6.40;95.20;;;;;;5435800;26;19995;-67
2024/04/21 00:13:56;;;;;;;4.20;1.90;;;6.40;95.20;;;;;;5431598;26;20010;-68
2024/04/21 00:16:22;;;;;;;2.80;1.80;;;6.30;95.50;;;;;;5434330;26;19995;-68
2024/04/21 00:18:48;;;;;;;4.20;2.10;;;6.30;95.80;;;;;;5437110;26;19995;-68
2024/04/21 00:21:13;;;;;;;2.75;1.90;;;6.30;95.70;;;;;;5432508;26;20459;-67
2024/04/21 00:23:39;;;;;;;3.75;2.10;;;6.30;95.80;;;;;;5432975;26;20014;-68
2024/04/21 00:26:05;;;;;;;3.22;2.00;;;6.20;95.80;;;;;;5431980;26;19994;-68
2024/04/21 00:28:31;;;;;;;2.97;1.98;;;6.20;96.00;;;;;;5431177;26;19995;-71
2024/04/21 00:30:57;;;;;;;4.68;2.50;;;6.10;96.30;;;;;;5427659;26;20002;-72
2024/04/21 00:33:23;;;;;;;6.13;2.30;;;6.10;96.40;;;;;;5433496;26;20109;-72
2024/04/21 00:35:49;;;;;;;4.45;2.47;;;6.10;96.30;;;;;;5435134;26;20003;-72
2024/04/21 00:38:15;;;;;;;3.80;2.55;;;6.10;96.50;;;;;;5430626;26;20022;-72
2024/04/21 00:40:41;;;;;;;4.00;2.30;;;6.10;96.10;;;;;;5434541;26;19995;-72
2024/04/21 00:43:09;;;;;;;6.95;3.17;;;6.00;96.30;;;;;;5430651;26;20014;-68
2024/04/21 00:45:40;;;;;;;3.33;2.40;;;6.00;96.60;;;;;;5432319;26;20006;-68
2024/04/21 00:48:07;;;;;;;3.30;2.47;;;6.00;96.30;;;;;;5433271;26;20006;-68
2024/04/21 00:50:34;;;;;;;5.13;2.45;;;5.90;96.00;;;;;;5430752;26;20423;-68
2024/04/21 00:53:01;;;;;;;5.43;2.83;;;5.90;96.10;;;;;;5433695;26;20067;-67
2024/04/21 00:55:28;;;;;;;3.72;2.20;;;5.90;96.00;;;;;;5434680;26;20582;-68
2024/04/21 00:57:55;;;;;;;3.97;2.53;;;5.90;96.40;;;;;;5437248;26;19999;-68
2024/04/21 01:00:23;;;;;;;6.75;2.85;;;5.80;96.50;;;;;;5431700;26;20013;-68
2024/04/21 01:02:49;;;;;;;4.13;2.58;;;5.80;96.80;;;;;;5437104;26;20006;-68
2024/04/21 01:05:15;;;;;;;4.10;2.95;;;5.80;96.70;;;;;;5430990;26;20544;-67
2024/04/21 01:07:41;;;;;;;3.85;2.30;;;5.70;96.70;;;;;;5434479;26;20006;-68
2024/04/21 01:10:07;;;;;;;5.28;2.20;;;5.60;96.80;;;;;;5436051;26;20003;-68
2024/04/21 01:12:42;;;;;;;4.55;2.67;;;5.60;96.80;;;;;;5433310;26;20042;-67
2024/04/21 01:15:11;;;;;;;3.47;2.40;;;5.60;96.90;;;;;;5434811;26;21008;-68
2024/04/21 01:17:37;;;;;;;4.00;2.70;;;5.60;97.10;;;;;;5431607;26;19998;-67
2024/04/21 01:20:03;;;;;;;6.00;2.97;;;5.50;97.40;;;;;;5425526;26;20543;-67
2024/04/21 01:22:29;;;;;;;3.83;2.45;;;5.50;97.70;;;;;;5435819;26;20006;-67
2024/04/21 01:24:55;;;;;;;4.70;2.78;;;5.40;97.80;;;;;;5434823;26;20023;-68
2024/04/21 01:27:21;;;;;;;5.28;2.80;;;5.40;97.80;;;;;;5434681;26;20010;-67
2024/04/21 01:29:47;;;;;;;4.28;2.42;;;5.40;97.90;;;;;;5431359;26;20018;-68
2024/04/21 01:32:20;;;;;;;6.15;3.17;;;5.30;97.90;;;;;;5431428;26;20723;-68
2024/04/21 01:34:47;;;;;;;5.20;3.00;;;5.30;98.10;;;;;;5433612;26;20029;-68
2024/04/21 01:37:15;;;;;;;7.70;2.75;;;5.20;98.30;;;;;;5436865;26;19999;-67
2024/04/21 01:39:41;;;;;;;5.25;2.92;;;5.20;98.40;;;;;;5435382;26;20706;-67
2024/04/21 01:42:07;;;;;;;6.95;2.65;;;5.10;98.50;;;;;;5436850;26;19995;-68
2024/04/21 01:44:33;;;;;;;7.55;2.92;;;5.10;98.50;;;;;;5435036;26;20051;-68
2024/04/21 01:46:58;;;;;;;4.60;2.97;;;5.00;98.60;;;;;;5434469;26;19995;-68
2024/04/21 01:49:24;;;;;;;6.00;3.20;;;5.00;98.60;;;;;;5439681;26;20088;-68
2024/04/21 01:51:50;;;;;;;6.70;2.83;;;5.00;98.70;;;;;;5433338;26;20092;-68
2024/04/21 01:54:16;;;;;;;5.53;2.85;;;4.90;98.80;;;;;;5434478;26;20011;-68
2024/04/21 01:56:41;;;;;;;4.57;2.78;;;4.90;98.80;;;;;;5439328;26;20055;-68
2024/04/21 01:59:07;;;;;;;5.25;2.67;;;4.80;98.90;;;;;;5437551;26;19999;-68
2024/04/21 02:01:33;;;;;;;4.40;3.10;;;4.80;99.10;;;;;;5436652;26;20608;-68
2024/04/21 02:03:58;;;;;;;6.25;2.83;;;4.80;99.20;;;;;;5436477;26;20009;-68
2024/04/21 02:06:24;;;;;;;4.45;3.17;;;4.80;99.00;;;;;;5435447;26;20455;-68
2024/04/21 02:08:50;;;;;;;4.50;2.72;;;4.70;99.00;;;;;;5435150;26;20000;-68
2024/04/21 02:11:16;;;;;;;6.70;3.58;;;4.70;99.10;;;;;;5433903;26;20535;-67
2024/04/21 02:13:41;;;;;;;8.05;3.72;;;4.70;99.10;;;;;;5437831;26;20052;-67
2024/04/21 02:16:07;;;;;;;5.65;3.40;;;4.70;99.20;;;;;;5435001;26;19995;-68
2024/04/21 02:18:33;;;;;;;4.75;2.80;;;4.70;99.10;;;;;;5437374;26;20012;-67
2024/04/21 02:20:59;;;;;;;4.45;3.10;;;4.70;99.10;;;;;;5434968;26;20010;-67
2024/04/21 02:23:24;;;;;;;9.30;3.33;;;4.70;99.20;;;;;;5437459;26;20002;-68
2024/04/21 02:26:00;;;;;;;5.20;2.70;;;4.60;99.10;;;;;;5433779;26;19995;-68
2024/04/21 02:28:27;;;;;;;5.05;2.92;;;4.60;99.30;;;;;;5436613;26;20027;-67
2024/04/21 02:30:53;;;;;;;6.03;2.75;;;4.70;99.50;;;;;;5431493;26;20045;-68
2024/04/21 02:33:21;;;;;;;5.35;3.22;;;4.70;99.50;;;;;;5439248;26;20050;-68
2024/04/21 02:35:47;;;;;;;5.25;3.15;;;4.60;99.50;;;;;;5435050;26;20129;-67
2024/04/21 02:38:13;;;;;;;4.85;2.95;;;4.60;99.60;;;;;;5439087;26;19999;-68
2024/04/21 02:40:38;;;;;;;8.43;3.60;;;4.60;99.20;;;;;;5435260;26;19999;-67
2024/04/21 02:43:05;;;;;;;4.13;2.80;;;4.70;99.20;;;;;;5438380;26;20006;-68
2024/04/21 02:45:31;;;;;;;5.72;3.22;;;4.60;99.10;;;;;;5435766;26;20002;-68
2024/04/21 02:47:56;;;;;;;4.80;3.30;;;4.60;98.70;;;;;;5437522;26;19991;-68
2024/04/21 02:50:22;;;;;;;7.85;2.85;;;4.60;98.40;;;;;;5430806;26;20846;-67
2024/04/21 02:52:48;;;;;;;4.78;2.65;;;4.60;98.60;;;;;;5436036;26;20006;-68
2024/04/21 02:55:14;;;;;;;6.20;3.00;;;4.60;98.50;;;;;;5431423;26;19999;-67
2024/04/21 02:57:40;;;;;;;7.72;3.65;;;4.60;98.80;;;;;;5434990;26;20002;-68
2024/04/21 03:00:06;;;;;;;6.97;3.00;;;4.50;99.00;;;;;;5430770;26;19999;-67
2024/04/21 03:02:32;;;;;;;5.45;3.38;;;4.60;99.20;;;;;;5434900;26;19995;-68
2024/04/21 03:04:58;;;;;;;7.85;3.38;;;4.50;99.30;;;;;;5429318;26;19998;-68
2024/04/21 03:07:23;;;;;;;4.38;2.92;;;4.50;99.30;;;;;;5438171;26;20003;-67
2024/04/21 03:09:49;;;;;;;5.80;3.58;;;4.50;99.30;;;;;;5429942;26;20813;-68
2024/04/21 03:12:15;;;;;;;6.35;3.40;;;4.50;99.20;;;;;;5437498;26;19998;-67
2024/04/21 03:14:40;;;;;;;5.57;2.70;;;4.40;98.90;;;;;;5439043;26;19991;-68
2024/04/21 03:17:06;;;;;;;6.38;3.15;;;4.40;98.90;;;;;;5431450;26;20010;-68
2024/04/21 03:19:32;;;;;;;6.80;2.92;;;4.40;99.10;;;;;;5435877;26;19995;-67
2024/04/21 03:21:59;;;;;;;4.72;3.00;;;4.30;99.00;;;;;;5430374;26;19999;-67
2024/04/21 03:24:24;;;;;;;5.10;3.10;;;4.30;99.30;;;;;;5433532;26;19998;-68
2024/04/21 03:26:50;;;;;;;4.57;2.78;;;4.30;99.40;;;;;;5428137;26;20443;-67
2024/04/21 03:29:16;;;;;;;4.88;2.75;;;4.30;99.50;;;;;;5433404;26;20417;-67
2024/04/21 03:31:43;;;;;;;4.10;2.90;;;4.30;99.70;;;;;;5431964;26;19999;-68
2024/04/21 03:34:09;;;;;;;5.78;3.20;;;4.20;99.80;;;;;;5433033;26;20071;-68
2024/04/21 03:36:35;;;;;;;5.97;3.03;;;4.20;99.70;;;;;;5435010;26;19995;-68
2024/04/21 03:39:01;;;;;;;10.77;3.58;;;4.10;99.50;;;;;;5430071;26;20002;-67
2024/04/21 03:41:27;;;;;;;6.03;3.35;;;4.20;99.60;;;;;;5433358;26;20007;-68
2024/04/21 03:43:53;;;;;;;4.13;2.88;;;4.10;99.50;;;;;;5432950;26;19999;-68
2024/04/21 03:46:19;;;;;;;7.25;2.78;;;4.10;99.60;;;;;;5431320;26;20005;-67
2024/04/21 03:48:45;;;;;;;7.47;3.13;;;4.10;99.60;;;;;;5434625;26;20554;-68
2024/04/21 03:51:11;;;;;;;10.02;2.95;;;4.10;99.30;;;;;;5428193;26;19995;-67
2024/04/21 03:53:37;;;;;;;3.85;2.47;;;4.10;99.20;;;;;;5436931;26;20006;-68
2024/04/21 03:56:03;;;;;;;5.38;2.60;;;4.00;99.20;;;;;;5434497;26;20232;-68
2024/04/21 03:58:28;;;;;;;4.88;2.72;;;4.00;99.30;;;;;;5437941;26;19991;-68
2024/04/21 04:00:54;;;;;;;4.05;2.70;;;4.00;99.20;;;;;;5431571;26;19999;-68
2024/04/21 04:03:20;;;;;;;4.75;2.75;;;4.00;98.90;;;;;;5435367;26;20009;-68
2024/04/21 04:05:46;;;;;;;5.40;3.03;;;3.90;98.80;;;;;;5436856;26;19995;-72
2024/04/21 04:08:12;;;;;;;4.60;2.70;;;3.90;99.00;;;;;;5433107;26;20369;-72
2024/04/21 04:10:39;;;;;;;7.47;2.83;;;3.90;99.00;;;;;;5433930;26;20018;-72
2024/04/21 04:13:05;;;;;;;3.33;2.40;;;3.90;99.30;;;;;;5432681;26;20046;-71
2024/04/21 04:15:31;;;;;;;5.53;2.78;;;3.90;99.20;;;;;;5431554;26;20007;-72
2024/04/21 04:17:58;;;;;;;5.22;2.80;;;3.90;99.00;;;;;;5430845;26;20451;-71
2024/04/21 04:20:25;;;;;;;4.15;2.67;;;3.90;99.20;;;;;;5433790;26;20078;-72
2024/04/21 04:22:51;;;;;;;3.55;2.25;;;3.90;99.00;;;;;;5430655;26;20006;-72
2024/04/21 04:25:16;;;;;;;4.82;2.67;;;4.00;98.50;;;;;;5438084;26;20233;-72
2024/04/21 04:27:42;;;;;;;4.22;2.40;;;3.90;98.70;;;;;;5416152;26;20067;-72
2024/04/21 04:30:09;;;;;;;3.97;2.50;;;4.00;98.10;;;;;;5435438;26;20006;-72
2024/04/21 04:32:34;;;;;;;7.25;2.65;;;3.90;98.20;;;;;;5437948;26;20010;-72
2024/04/21 04:35:00;;;;;;;3.42;2.28;;;3.90;98.50;;;;;;5436449;26;21718;-72
2024/04/21 04:37:27;;;;;;;5.57;2.70;;;3.90;98.10;;;;;;5435577;26;20085;-72
2024/04/21 04:39:53;;;;;;;5.25;2.55;;;4.00;97.80;;;;;;5434926;26;19995;-72
2024/04/21 04:42:18;;;;;;;3.63;2.20;;;4.00;98.20;;;;;;5430218;26;19999;-72
2024/04/21 04:44:44;;;;;;;4.13;2.45;;;4.10;98.30;;;;;;5433893;26;20461;-72
2024/04/21 04:47:10;;;;;;;3.13;2.30;;;4.10;97.10;;;;;;5430597;26;20485;-72
2024/04/21 04:49:35;;;;;;;4.18;2.05;;;4.10;97.20;;;;;;5434869;26;19999;-72
2024/04/21 04:52:01;;;;;;;6.57;2.63;;;4.10;96.80;;;;;;5428710;26;19998;-72
2024/04/21 04:54:27;;;;;;;4.75;2.47;;;4.10;96.90;;;;;;5435469;26;19994;-72
2024/04/21 04:56:53;;;;;;;4.13;2.53;;;4.10;96.40;;;;;;5432786;26;20003;-72
2024/04/21 04:59:19;;;;;;;5.35;2.70;;;4.20;96.90;;;;;;5437276;26;19999;-72
2024/04/21 05:01:45;;;;;;;3.67;2.33;;;4.20;97.00;;;;;;5426145;26;20030;-71
2024/04/21 05:04:10;;;;;;;5.82;2.53;;;4.30;97.20;;;;;;5433339;26;20005;-72
2024/04/21 05:06:37;;;;;;;4.07;2.80;;;4.30;97.10;;;;;;5430019;26;20820;-72
2024/04/21 05:09:04;;;;;;;5.22;2.35;;;4.40;97.20;;;;;;5437163;26;19995;-72
2024/04/21 05:11:30;;;;;;;3.40;2.20;;;4.40;96.60;;;;;;5432899;26;19994;-72
2024/04/21 05:13:59;;;;;;;3.80;2.15;;;4.40;96.10;;;;;;5435427;26;19999;-72
2024/04/21 05:16:25;;;;;;;5.20;2.38;;;4.50;96.80;;;;;;5430746;26;19999;-72
2024/04/21 05:18:51;;;;;;;5.88;2.35;;;4.50;95.60;;;;;;5435833;26;20744;-72
2024/04/21 05:21:17;;;;;;;6.55;2.58;;;4.70;96.10;;;;;;5436207;26;20033;-72
2024/04/21 05:23:43;;;;;;;3.92;2.10;;;4.70;94.70;;;;;;5437770;26;20325;-72
2024/04/21 05:26:09;;;;;;;5.20;2.13;;;4.80;95.30;;;;;;5436808;26;19992;-72
2024/04/21 05:28:35;;;;;;;4.53;2.30;;;4.90;95.30;;;;;;5438192;26;20017;-72
2024/04/21 05:31:01;;;;;;;6.00;2.40;;;5.10;95.50;;;;;;5430086;26;20438;-72
2024/04/21 05:33:27;;;;;;;3.53;2.33;;;5.10;94.70;;;;;;5435914;26;20992;-71
2024/04/21 05:35:52;;;;;;;3.08;2.10;;;5.20;93.70;;;;;;5437034;26;19998;-72
2024/04/21 05:38:18;;;;;;;3.85;2.05;;;5.20;93.00;;;;;;5436389;26;19999;-72
2024/04/21 05:40:45;;;;;;;4.45;2.28;;;5.30;93.30;;;;;;5435610;26;19991;-72
2024/04/21 05:43:11;;;;;;;4.18;2.25;;;5.40;93.30;;;;;;5432528;26;20512;-72
2024/04/21 05:45:37;;;;;;;3.22;2.05;;;5.60;93.80;;;;;;5437298;26;20027;-72
2024/04/21 05:48:03;;;;;;;5.70;2.13;;;5.80;91.90;;;;;;5439832;26;20223;-72
2024/04/21 05:50:29;;;;;;;5.28;2.40;;;6.00;90.00;;;;;;5439157;26;20010;-72
2024/04/21 05:52:55;;;;;;;3.22;2.05;;;6.10;88.30;;;;;;5436132;26;20002;-72
2024/04/21 05:55:20;;;;;;;3.05;2.00;;;6.10;87.40;;;;;;5438784;26;20006;-72
2024/04/21 05:57:46;;;;;;;3.00;2.10;;;6.20;87.50;;;;;;5437291;26;20015;-71
2024/04/21 06:00:12;;;;;;;2.85;1.50;;;6.20;86.70;;;;;;5435202;26;20011;-72
2024/04/21 06:02:37;;;;;;;3.58;2.38;;;6.20;87.60;;;;;;5437065;26;20002;-71
2024/04/21 06:05:04;;;;;;;2.70;2.03;;;6.20;87.20;;;;;;5434777;26;19992;-72
2024/04/21 06:07:29;;;;;;;4.50;2.45;;;6.30;87.10;;;;;;5436830;26;20766;-72
2024/04/21 06:09:55;;;;;;;3.33;1.88;;;6.40;87.80;;;;;;5434665;26;20002;-72
2024/04/21 06:12:22;;;;;;;2.90;1.85;;;6.40;87.00;;;;;;5433519;26;19991;-72
2024/04/21 06:14:48;;;;;;;3.65;2.05;;;6.60;87.40;;;;;;5434163;26;20025;-72
2024/04/21 06:17:14;;;;;;;4.47;1.58;;;6.70;86.40;;;;;;5437377;26;19995;-72
2024/04/21 06:19:40;;;;;;;2.58;1.50;;;6.80;87.30;;;;;;5438949;26;19999;-67
2024/04/21 06:22:06;;;;;;;4.05;2.03;;;6.90;85.60;;;;;;5433581;26;19994;-67
2024/04/21 06:24:32;;;;;;;4.30;1.85;;;7.00;84.80;;;;;;5440136;26;20018;-68
2024/04/21 06:26:57;;;;;;;5.28;2.45;;;7.10;83.20;;;;;;5436930;26;20096;-67
2024/04/21 06:29:23;;;;;;;2.92;1.50;;;7.20;81.50;;;;;;5439846;26;20066;-67
2024/04/21 06:31:49;;;;;;;2.70;1.80;;;7.30;84.50;;;;;;5434444;26;20446;-68
2024/04/21 06:34:15;;;;;;;2.63;1.80;;;7.30;80.70;;;;;;5439300;26;20534;-67
2024/04/21 06:36:40;;;;;;;5.97;1.95;;;7.40;81.60;;;;;;5436418;26;20940;-67
2024/04/21 06:39:06;;;;;;;2.63;1.67;;;7.40;79.00;;;;;;5436661;26;20013;-67
2024/04/21 06:41:32;;;;;;;1.85;1.40;;;7.30;78.90;;;;;;5436662;26;20009;-68
2024/04/21 06:43:58;;;;;;;2.15;1.33;;;7.60;80.70;;;;;;5436295;26;20841;-68
2024/04/21 06:46:23;;;;;;;4.05;1.45;;;7.80;79.60;;;;;;5434976;26;20000;-68
2024/04/21 06:48:49;;;;;;;2.65;1.38;;;8.00;80.30;;;;;;5435830;26;20819;-68
2024/04/21 06:51:15;;;;;;;4.07;1.83;;;8.20;79.10;;;;;;5434350;26;20080;-67
2024/04/21 06:53:41;;;;;;;3.60;1.45;;;8.30;76.90;;;;;;5433909;26;20007;-67
2024/04/21 06:56:06;;;;;;;3.72;1.55;;;8.30;76.30;;;;;;5430133;26;19996;-67
2024/04/21 06:58:32;;;;;;;2.88;1.55;;;8.40;76.60;;;;;;5432415;26;20469;-67
2024/04/21 07:00:58;;;;;;;2.90;1.38;;;8.40;77.00;;;;;;5437292;26;21173;-68
2024/04/21 07:03:24;;;;;;;4.35;1.40;;;8.40;75.20;;;;;;5438026;26;19999;-67
2024/04/21 07:05:50;;;;;;;3.50;2.00;;;8.60;77.30;;;;;;5439380;26;19991;-68
2024/04/21 07:08:15;;;;;;;4.22;1.50;;;8.80;76.20;;;;;;5434327;26;19998;-67
2024/04/21 07:10:42;;;;;;;3.00;1.90;;;8.90;74.40;;;;;;5438199;26;20002;-67
2024/04/21 07:13:07;;;;;;;3.22;1.40;;;8.80;72.80;;;;;;5432534;26;20006;-67
2024/04/21 07:15:34;;;;;;;3.30;1.50;;;8.90;73.10;;;;;;5436459;26;19995;-68
2024/04/21 07:17:59;;;;;;;2.97;1.48;;;9.10;75.60;;;;;;5428477;26;20090;-68
2024/04/21 07:20:25;;;;;;;2.13;1.40;;;9.40;75.30;;;;;;5438515;26;20021;-67
2024/04/21 07:22:51;;;;;;;2.17;1.50;;;9.40;71.10;;;;;;5431865;26;19991;-67
2024/04/21 07:25:19;;;;;;;1.73;1.30;;;9.30;69.00;;;;;;5435622;26;20006;-71
2024/04/21 07:27:45;;;;;;;2.42;1.70;;;9.50;69.20;;;;;;5430443;26;20009;-71
2024/04/21 07:30:11;;;;;;;1.40;1.30;;;10.10;69.50;;;;;;5436116;26;20003;-72
2024/04/21 07:32:37;;;;;;;3.92;1.50;;;10.60;64.80;;;;;;5430300;26;19998;-72
2024/04/21 07:35:03;;;;;;;2.60;1.30;;;11.40;64.40;;;;;;5435641;26;20015;-72
2024/04/21 07:37:28;;;;;;;3.78;1.45;;;12.00;63.00;;;;;;5438361;26;20014;-71
2024/04/21 07:39:55;;;;;;;2.72;1.40;;;12.00;62.10;;;;;;5434131;26;20470;-71
2024/04/21 07:42:21;;;;;;;3.25;1.63;;;11.90;63.20;;;;;;5434168;26;20026;-71
2024/04/21 07:44:47;;;;;;;2.53;1.30;;;11.80;63.10;;;;;;5432425;26;20014;-72
2024/04/21 07:47:13;;;;;;;3.45;2.33;;;11.70;60.80;;;;;;5437803;26;20022;-72
2024/04/21 07:49:39;;;;;;;3.20;1.48;;;11.80;64.30;;;;;;5433939;26;20654;-72
2024/04/21 07:52:05;;;;;;;3.97;1.58;;;12.20;64.50;;;;;;5428602;26;20006;-71
2024/04/21 07:54:31;;;;;;;6.53;1.90;;;12.30;59.50;;;;;;5433753;26;19999;-71
2024/04/21 07:56:57;;;;;;;3.55;1.63;;;12.10;59.70;;;;;;5430176;26;20010;-71
2024/04/21 07:59:22;;;;;;;3.38;1.33;;;12.00;61.90;;;;;;5433119;26;20007;-72
2024/04/21 08:01:48;;;;;;;3.08;1.15;;;12.10;60.70;;;;;;5430746;26;20372;-72
2024/04/21 08:04:14;;;;;;;1.92;1.38;;;12.00;60.10;;;;;;5433750;26;20342;-71
2024/04/21 08:06:40;;;;;;;2.78;1.42;;;11.90;58.90;;;;;;5437235;26;19990;-72
2024/04/21 08:09:05;;;;;;;2.22;1.40;;;11.90;61.70;;;;;;5435276;26;20014;-72
2024/04/21 08:11:31;;;;;;;2.97;1.70;;;12.00;62.80;;;;;;5431681;26;20057;-71
2024/04/21 08:13:57;;;;;;;2.25;1.67;;;12.00;57.40;;;;;;5437620;26;20014;-69
2024/04/21 08:16:23;;;;;;;1.67;1.50;;;12.00;60.70;;;;;;5435502;26;20346;-70
2024/04/21 08:18:49;;;;;;;3.30;1.67;;;11.90;57.60;;;;;;5435958;26;19994;-71
2024/04/21 08:21:14;;;;;;;1.33;1.23;;;11.70;56.40;;;;;;5435392;26;20042;-71
2024/04/21 08:23:41;;;;;;;4.40;1.52;;;11.40;55.70;;;;;;5434329;26;20516;-72
2024/04/21 08:26:06;;;;;;;3.95;1.50;;;11.10;56.30;;;;;;5437213;26;20039;-71
2024/04/21 08:28:32;;;;;;;1.15;1.00;;;11.00;58.80;;;;;;5434380;26;20457;-71
2024/04/21 08:30:58;;;;;;;1.52;0.90;;;11.00;59.30;;;;;;5433702;26;20381;-72
2024/04/21 08:33:25;;;;;;;2.25;1.08;;;10.90;58.50;;;;;;5434241;26;19991;-71
2024/04/21 08:35:55;;;;;;;1.80;1.25;;;10.90;59.50;;;;;;5433666;26;20034;-71
2024/04/21 08:38:21;;;;;;;2.15;1.13;;;10.90;59.60;;;;;;5438466;26;20010;-71
2024/04/21 08:40:49;;;;;;;3.05;1.13;;;10.90;58.60;;;;;;5434517;26;20042;-71
2024/04/21 08:43:25;;;;;;;2.45;1.42;;;11.00;62.00;;;;;;5430356;26;19999;-71
2024/04/21 08:45:52;;;;;;;3.28;1.55;;;11.10;58.20;;;;;;5433652;26;20011;-68
2024/04/21 08:48:19;;;;;;;1.70;1.08;;;11.20;60.90;;;;;;5435085;26;20014;-65
2024/04/21 08:50:50;;;;;;;2.42;1.30;;;11.30;57.40;;;;;;5432892;26;20049;-68
2024/04/21 08:53:17;;;;;;;2.17;1.00;;;11.20;57.20;;;;;;5431411;26;19999;-67
2024/04/21 08:55:47;;;;;;;1.55;1.10;;;11.20;59.10;;;;;;5432908;26;20724;-68
2024/04/21 08:58:15;;;;;;;3.75;1.58;;;11.20;57.70;;;;;;5431452;26;19994;-68
2024/04/21 09:00:41;;;;;;;2.65;1.30;;;11.20;56.80;;;;;;5435927;26;20009;-68
2024/04/21 09:03:08;;;;;;;2.40;1.35;;;11.20;56.10;;;;;;5428171;26;20035;-67
2024/04/21 09:05:34;;;;;;;1.52;1.30;;;11.40;58.60;;;;;;5435479;26;20003;-68
2024/04/21 09:08:00;;;;;;;2.20;1.13;;;11.40;55.60;;;;;;5435142;26;20006;-68
2024/04/21 09:10:26;;;;;;;1.50;1.13;;;11.50;55.70;;;;;;5433975;26;20016;-68
2024/04/21 09:12:53;;;;;;;3.33;1.15;;;11.80;57.00;;;;;;5430512;26;20002;-68
2024/04/21 09:15:19;;;;;;;3.33;1.15;;;12.10;54.70;;;;;;5434640;26;20467;-68
2024/04/21 09:17:45;;;;;;;1.80;1.20;;;12.30;56.40;;;;;;5434355;26;20056;-68
2024/04/21 09:20:11;;;;;;;2.13;0.88;;;12.50;54.70;;;;;;5433199;26;20010;-68
2024/04/21 09:22:37;;;;;;;2.55;1.20;;;12.50;53.00;;;;;;5435811;26;20018;-71
2024/04/21 09:25:04;;;;;;;2.85;1.17;;;12.30;53.50;;;;;;5436888;26;20029;-68
2024/04/21 09:27:30;;;;;;;1.52;1.30;;;12.10;55.20;;;;;;5432829;26;20007;-71
2024/04/21 09:29:57;;;;;;;1.20;0.98;;;11.60;54.30;;;;;;5433066;26;20048;-72
2024/04/21 09:32:26;;;;;;;3.25;1.20;;;11.50;53.90;;;;;;5430245;26;19996;-72
2024/04/21 09:34:54;;;;;;;1.73;1.33;;;11.40;55.70;;;;;;5431954;26;19999;-72
2024/04/21 09:37:20;;;;;;;1.63;1.10;;;11.30;54.50;;;;;;5432826;26;20014;-72
2024/04/21 09:39:47;;;;;;;3.20;1.10;;;11.30;57.70;;;;;;5415078;26;20034;-70
2024/04/21 09:42:20;;;;;;;0.98;0.88;;;11.30;56.70;;;;;;5435754;26;20564;-70
2024/04/21 09:44:49;;;;;;;1.23;1.10;;;11.50;55.00;;;;;;5426919;26;20029;-70
2024/04/21 09:47:16;;;;;;;3.17;1.13;;;11.50;55.90;;;;;;5430990;26;19999;-67
2024/04/21 09:49:43;;;;;;;2.10;1.20;;;11.50;56.50;;;;;;5431172;26;20010;-67
2024/04/21 09:52:11;;;;;;;3.15;1.50;;;11.60;56.40;;;;;;5434406;26;20011;-67
2024/04/21 09:54:38;;;;;;;2.88;1.10;;;11.50;54.50;;;;;;5432268;26;19999;-72
2024/04/21 09:57:15;;;;;;;3.00;1.15;;;11.50;56.10;;;;;;5433308;26;19995;-72
2024/04/21 09:59:44;;;;;;;1.25;1.13;;;11.50;57.80;;;;;;5435174;26;20103;-71
2024/04/21 10:02:24;;;;;;;2.05;1.20;;;11.60;53.90;;;;;;5438026;26;19999;-69
2024/04/21 10:05:00;;;;;;;2.10;1.20;;;11.80;56.70;;;;;;5438676;26;20549;-74
2024/04/21 10:07:26;;;;;;;;;;;12.00;55.40;;;;;;5440007;26;19998;-73
2024/04/21 10:09:53;;;;;;;5.45;1.10;;;12.00;54.40;;;;;;5435350;26;20824;-73
2024/04/21 10:12:22;;;;;;;1.77;1.15;;;11.70;54.60;;;;;;5437679;26;20002;-73
2024/04/21 10:14:49;;;;;;;1.98;1.45;;;11.60;55.40;;;;;;5431585;26;20343;-74
2024/04/21 10:17:15;;;;;;;2.30;1.27;;;11.60;56.80;;;;;;5439648;26;19999;-73
2024/04/21 10:19:41;;;;;;;2.42;1.40;;;11.60;55.00;;;;;;5438557;26;20011;-73
2024/04/21 10:22:07;;;;;;;3.33;2.05;;;11.60;57.90;;;;;;5432925;26;19999;-73
2024/04/21 10:24:35;;;;;;;3.30;1.40;;;11.70;56.40;;;;;;5433476;26;20018;-73
2024/04/21 10:27:02;;;;;;;1.48;0.90;;;11.90;60.90;;;;;;5437317;26;19995;-70
2024/04/21 10:29:31;;;;;;;3.45;1.27;;;12.10;58.80;;;;;;5430718;26;20015;-71
2024/04/21 10:32:24;;;;;;;1.85;1.60;;;12.20;55.70;;;;;;5434128;26;20670;-71
2024/04/21 10:34:50;;;;;;;2.70;1.35;;;12.20;57.30;;;;;;5426960;26;20013;-68
2024/04/21 10:37:26;;;;;;;3.63;1.00;;;12.10;55.20;;;;;;5433259;26;19998;-70
2024/04/21 10:40:04;;;;;;;1.13;1.00;;;12.00;55.20;;;;;;5433717;26;20067;-65
2024/04/21 10:42:33;;;;;;;1.65;1.23;;;12.00;56.90;;;;;;5438330;26;20487;-66
2024/04/21 10:45:03;;;;;;;2.80;1.05;;;12.00;58.00;;;;;;5434116;26;20002;-65
2024/04/21 10:47:28;;;;;;;2.55;1.10;;;12.10;56.30;;;;;;5431714;26;19999;-66
2024/04/21 10:49:55;;;;;;;0.95;0.90;;;12.20;56.60;;;;;;5431987;26;20362;-66
2024/04/21 10:52:21;;;;;;;2.47;1.20;;;12.10;55.90;;;;;;5433971;26;20031;-65
2024/04/21 10:54:47;;;;;;;1.13;0.80;;;12.00;57.10;;;;;;5435708;26;20791;-66
2024/04/21 10:57:14;;;;;;;3.90;1.25;;;11.90;59.00;;;;;;5436843;26;20382;-68
2024/04/21 10:59:41;;;;;;;1.60;1.00;;;11.90;56.60;;;;;;5431473;26;20002;-67
2024/04/21 11:02:07;;;;;;;1.30;0.95;;;11.80;56.60;;;;;;5435555;26;20044;-66
2024/04/21 11:04:35;;;;;;;1.90;1.42;;;11.90;56.80;;;;;;5438828;26;20031;-66
2024/04/21 11:07:02;;;;;;;2.22;1.20;;;11.90;56.30;;;;;;5435399;26;20002;-66
2024/04/21 11:09:27;;;;;;;2.80;1.30;;;12.00;55.00;;;;;;5433239;26;20003;-66
2024/04/21 11:11:54;;;;;;;3.33;1.38;;;12.00;55.70;;;;;;5429767;26;20494;-66
2024/04/21 11:14:19;;;;;;;1.65;1.30;;;11.90;56.00;;;;;;5432265;26;20519;-65
2024/04/21 11:16:54;;;;;;;1.45;1.23;;;11.90;56.30;;;;;;5423822;26;20003;-70
2024/04/21 11:19:21;;;;;;;1.20;1.00;;;11.80;55.60;;;;;;5432265;26;20462;-68
2024/04/21 11:21:47;;;;;;;1.92;1.27;;;11.80;56.90;;;;;;5436787;26;19995;-68
2024/04/21 11:24:14;;;;;;;2.28;1.25;;;11.80;57.50;;;;;;5429229;26;20073;-69
2024/04/21 11:26:41;;;;;;;1.23;1.13;;;11.80;56.50;;;;;;5437480;26;20003;-68
2024/04/21 11:29:07;;;;;;;1.23;1.13;;;11.60;54.60;;;;;;5433446;26;20714;-72
2024/04/21 11:31:32;;;;;;;2.15;1.33;;;11.70;56.80;;;;;;5435800;26;20007;-69
2024/04/21 11:34:02;;;;;;;3.08;1.65;;;11.80;59.10;;;;;;5429490;26;20352;-69
2024/04/21 11:36:29;;;;;;;1.58;1.10;;;12.10;56.30;;;;;;5435191;26;20013;-68
2024/04/21 11:38:55;;;;;;;3.65;1.48;;;12.30;56.20;;;;;;5436067;26;20013;-68
2024/04/21 11:41:21;;;;;;;2.45;1.10;;;12.50;54.80;;;;;;5436940;26;19995;-68
2024/04/21 11:43:52;;;;;;;1.50;1.30;;;12.40;54.70;;;;;;5433667;26;20087;-70
2024/04/21 11:46:18;;;;;;;2.03;1.10;;;12.20;54.60;;;;;;5433081;26;20404;-68
2024/04/21 11:48:51;;;;;;;1.98;1.17;;;12.20;57.80;;;;;;5433721;26;19999;-68
2024/04/21 11:51:17;;;;;;;1.60;1.33;;;12.00;55.90;;;;;;5435904;26;20335;-68
2024/04/21 11:53:42;;;;;;;1.08;1.00;;;12.00;57.30;;;;;;5436392;26;20014;-68
2024/04/21 11:56:08;;;;;;;1.90;1.08;;;11.80;56.50;;;;;;5431448;26;20010;-72
2024/04/21 11:58:34;;;;;;;1.73;1.40;;;11.80;58.00;;;;;;5433469;26;19995;-69
2024/04/21 12:01:01;;;;;;;1.30;1.00;;;11.90;56.10;;;;;;5433185;26;20888;-69
2024/04/21 12:03:27;;;;;;;1.63;1.10;;;12.00;55.80;;;;;;5436466;26;20066;-65
2024/04/21 12:05:53;;;;;;;1.52;0.80;;;12.20;57.90;;;;;;5434905;26;19998;-66
2024/04/21 12:08:18;;;;;;;1.80;0.93;;;12.50;54.10;;;;;;5432176;26;20473;-66
2024/04/21 12:10:44;;;;;;;1.30;1.00;;;12.60;55.40;;;;;;5437407;26;20522;-66
2024/04/21 12:13:10;;;;;;;2.55;1.17;;;12.70;56.40;;;;;;5431763;26;20014;-66
2024/04/21 12:15:36;;;;;;;2.65;1.20;;;12.60;55.80;;;;;;5438428;26;20585;-66
2024/04/21 12:18:09;;;;;;;1.83;1.00;;;12.70;56.10;;;;;;5426284;26;19995;-66
2024/04/21 12:20:36;;;;;;;1.98;1.10;;;12.70;54.40;;;;;;5433725;26;20018;-65
2024/04/21 12:23:06;;;;;;;3.47;1.38;;;12.60;55.10;;;;;;5436659;26;20047;-66
2024/04/21 12:25:33;;;;;;;1.58;1.00;;;12.70;58.20;;;;;;5436652;26;20017;-66
2024/04/21 12:27:59;;;;;;;2.17;1.10;;;12.70;57.10;;;;;;5429601;26;20354;-69
2024/04/21 12:30:24;;;;;;;2.42;1.65;;;12.80;57.60;;;;;;5435494;26;20016;-71
2024/04/21 12:32:51;;;;;;;2.45;1.20;;;12.80;56.90;;;;;;5435763;26;20010;-71
2024/04/21 12:35:17;;;;;;;2.10;1.20;;;12.70;58.30;;;;;;5434094;26;20006;-70
2024/04/21 12:37:43;;;;;;;2.15;1.30;;;12.70;56.90;;;;;;5434966;26;20193;-70
2024/04/21 12:40:09;;;;;;;4.30;1.63;;;12.60;58.50;;;;;;5434641;26;20011;-71
2024/04/21 12:42:37;;;;;;;1.30;1.10;;;12.60;56.60;;;;;;5434832;26;20010;-71
2024/04/21 12:45:04;;;;;;;4.32;1.30;;;12.50;56.20;;;;;;5426299;26;20520;-71
2024/04/21 12:47:31;;;;;;;2.58;1.70;;;12.50;58.90;;;;;;5435556;26;20076;-71
2024/04/21 12:49:58;;;;;;;2.33;1.30;;;12.50;59.20;;;;;;5431653;26;19998;-71